Time;durP1;ratioP1;P1;durP2;ratioP2;P2;SDS_P1;SDS_P2;PMS_P1;PMS_P2;Temp;Humidity;BMP_temperature;BMP_pressure;BME280_temperature;BME280_humidity;BME280_pressure;Samples;Min_cycle;Max_cycle;Signal;HPM_P1;HPM_P2
2022/03/24 00:01:24;;;;;;;57.33;32.63;;;10.20;90.00;;;;;;5053613;28;20281;-69
2022/03/24 00:03:49;;;;;;;60.83;33.43;;;10.20;90.50;;;;;;5053292;28;20223;-69
2022/03/24 00:06:15;;;;;;;57.97;32.80;;;10.30;90.70;;;;;;5053358;28;20307;-68
2022/03/24 00:08:41;;;;;;;57.20;32.67;;;10.40;90.40;;;;;;5053230;28;20177;-69
2022/03/24 00:11:06;;;;;;;54.30;34.37;;;10.40;90.00;;;;;;5052987;28;20174;-68
2022/03/24 00:13:32;;;;;;;62.17;33.50;;;10.40;90.50;;;;;;5053419;28;20268;-69
2022/03/24 00:15:58;;;;;;;56.83;33.00;;;10.40;91.30;;;;;;5053581;28;20180;-69
2022/03/24 00:18:25;;;;;;;59.37;32.53;;;10.30;90.70;;;;;;5053415;28;20248;-68
2022/03/24 00:20:51;;;;;;;62.40;33.63;;;10.10;91.30;;;;;;5052100;28;20184;-68
2022/03/24 00:23:16;;;;;;;52.90;31.43;;;10.10;92.50;;;;;;5053029;28;20256;-69
2022/03/24 00:25:42;;;;;;;57.50;33.20;;;10.20;93.00;;;;;;5051447;28;20269;-70
2022/03/24 00:28:08;;;;;;;56.27;32.67;;;10.20;93.50;;;;;;5053242;28;20249;-69
2022/03/24 00:30:33;;;;;;;57.83;34.70;;;10.30;93.70;;;;;;5053230;28;20177;-68
2022/03/24 00:32:59;;;;;;;55.33;32.50;;;10.30;93.30;;;;;;5053059;28;20176;-68
2022/03/24 00:35:25;;;;;;;56.57;31.00;;;10.30;93.60;;;;;;5053124;28;20180;-69
2022/03/24 00:37:51;;;;;;;61.23;33.17;;;10.30;93.70;;;;;;5051397;28;20256;-68
2022/03/24 00:40:18;;;;;;;58.80;32.57;;;10.20;93.50;;;;;;5052658;28;20640;-70
2022/03/24 00:42:44;;;;;;;56.00;32.10;;;10.10;94.30;;;;;;5053084;28;20238;-69
2022/03/24 00:45:12;;;;;;;54.83;31.13;;;10.00;95.00;;;;;;5053196;28;20255;-69
2022/03/24 00:47:38;;;;;;;59.90;32.73;;;9.90;96.10;;;;;;5052947;28;20196;-70
2022/03/24 00:50:05;;;;;;;61.07;34.33;;;9.90;96.10;;;;;;5053247;28;20178;-69
2022/03/24 00:52:30;;;;;;;54.77;31.50;;;9.80;95.70;;;;;;5052599;28;20181;-68
2022/03/24 00:54:56;;;;;;;59.03;34.43;;;9.90;96.00;;;;;;5052502;28;20235;-69
2022/03/24 00:57:22;;;;;;;56.63;33.47;;;9.80;96.30;;;;;;5052721;28;20196;-69
2022/03/24 00:59:47;;;;;;;55.17;33.53;;;9.90;96.30;;;;;;5052821;28;20332;-69
2022/03/24 01:02:14;;;;;;;56.83;33.40;;;10.00;95.60;;;;;;5051814;28;20177;-69
2022/03/24 01:04:41;;;;;;;58.83;33.37;;;9.90;96.10;;;;;;5052907;28;20172;-69
2022/03/24 01:07:07;;;;;;;55.27;32.37;;;9.90;96.60;;;;;;5052585;28;20192;-69
2022/03/24 01:09:33;;;;;;;57.90;33.27;;;9.90;96.30;;;;;;5052657;28;20173;-69
2022/03/24 01:11:58;;;;;;;56.03;33.30;;;9.90;96.20;;;;;;5052865;28;20256;-69
2022/03/24 01:14:25;;;;;;;55.20;32.53;;;9.80;96.30;;;;;;5053050;28;20196;-69
2022/03/24 01:16:51;;;;;;;52.07;33.23;;;9.80;96.60;;;;;;5056588;28;20191;-68
2022/03/24 01:19:17;;;;;;;58.23;32.67;;;9.80;96.40;;;;;;5056441;28;20615;-70
2022/03/24 01:21:43;;;;;;;59.37;33.67;;;9.80;96.50;;;;;;5056425;28;20209;-69
2022/03/24 01:24:09;;;;;;;59.10;32.47;;;9.70;97.10;;;;;;5054889;28;20177;-70
2022/03/24 01:26:36;;;;;;;55.97;31.97;;;9.70;97.40;;;;;;5056578;28;20173;-69
2022/03/24 01:29:02;;;;;;;55.80;32.70;;;9.70;97.60;;;;;;5056502;28;20168;-69
2022/03/24 01:31:28;;;;;;;56.53;32.17;;;9.60;98.00;;;;;;5056379;28;20176;-68
2022/03/24 01:33:54;;;;;;;54.13;31.87;;;9.60;98.10;;;;;;5056252;28;20170;-68
2022/03/24 01:36:20;;;;;;;49.03;31.33;;;9.60;98.30;;;;;;5055978;28;20177;-69
2022/03/24 01:38:46;;;;;;;53.20;32.43;;;9.60;98.00;;;;;;5056390;28;20660;-68
2022/03/24 01:41:12;;;;;;;55.43;32.50;;;9.60;98.50;;;;;;5056403;28;20200;-69
2022/03/24 01:43:39;;;;;;;53.43;32.30;;;9.50;98.40;;;;;;5056194;28;20204;-69
2022/03/24 01:46:04;;;;;;;57.57;32.77;;;9.50;98.50;;;;;;5056111;28;20161;-68
2022/03/24 01:48:30;;;;;;;59.37;33.67;;;9.40;98.90;;;;;;5056022;28;20354;-68
2022/03/24 01:50:56;;;;;;;51.33;32.03;;;9.30;99.40;;;;;;5055633;28;20525;-68
2022/03/24 01:53:22;;;;;;;49.97;31.07;;;9.40;99.50;;;;;;5056083;28;20181;-69
2022/03/24 01:55:50;;;;;;;51.97;31.03;;;9.50;99.40;;;;;;5055728;28;20282;-69
2022/03/24 01:58:16;;;;;;;55.87;31.30;;;9.60;99.30;;;;;;5055709;28;20220;-69
2022/03/24 02:00:44;;;;;;;42.47;29.17;;;9.70;99.20;;;;;;5056005;28;20566;-69
2022/03/24 02:03:14;;;;;;;51.00;29.50;;;9.70;99.20;;;;;;5055630;28;20180;-68
2022/03/24 02:05:40;;;;;;;57.27;31.43;;;9.80;99.40;;;;;;5055383;28;20227;-68
2022/03/24 02:08:07;;;;;;;48.43;30.40;;;9.70;99.50;;;;;;5055767;28;20166;-68
2022/03/24 02:10:34;;;;;;;48.57;29.83;;;9.80;99.50;;;;;;5055850;28;20188;-68
2022/03/24 02:13:01;;;;;;;53.37;30.13;;;9.70;99.50;;;;;;5055451;28;20168;-69
2022/03/24 02:15:27;;;;;;;53.83;30.67;;;9.60;99.90;;;;;;5055763;28;20174;-69
2022/03/24 02:17:53;;;;;;;52.53;31.20;;;9.50;99.90;;;;;;5055124;28;20170;-69
2022/03/24 02:20:20;;;;;;;49.83;28.83;;;9.40;99.90;;;;;;5054990;28;20188;-69
2022/03/24 02:22:49;;;;;;;53.43;29.53;;;9.40;99.90;;;;;;5055410;28;20165;-69
2022/03/24 02:25:15;;;;;;;50.47;30.77;;;9.50;99.90;;;;;;5055496;28;20746;-69
2022/03/24 02:27:41;;;;;;;51.87;30.00;;;9.60;99.90;;;;;;5055189;28;20161;-68
2022/03/24 02:30:09;;;;;;;50.70;31.23;;;9.60;99.90;;;;;;5055471;28;20621;-68
2022/03/24 02:32:35;;;;;;;53.77;31.17;;;9.60;99.90;;;;;;5055012;28;20165;-68
2022/03/24 02:35:00;;;;;;;52.80;30.90;;;9.60;99.90;;;;;;5054837;28;20593;-68
2022/03/24 02:37:28;;;;;;;51.83;31.90;;;9.60;99.90;;;;;;5054956;28;20170;-69
2022/03/24 02:39:56;;;;;;;50.97;30.53;;;9.60;99.90;;;;;;5055215;28;20254;-68
2022/03/24 02:42:26;;;;;;;54.43;31.67;;;9.50;99.90;;;;;;5053942;28;20169;-69
2022/03/24 02:44:54;;;;;;;54.83;32.17;;;9.50;99.90;;;;;;5054978;28;20629;-69
2022/03/24 02:47:20;;;;;;;49.67;31.50;;;9.50;99.90;;;;;;5054516;28;20166;-68
2022/03/24 02:49:48;;;;;;;56.60;32.70;;;9.50;99.90;;;;;;5054667;28;20201;-69
2022/03/24 02:52:14;;;;;;;51.37;31.97;;;9.50;99.90;;;;;;5055018;28;20192;-69
2022/03/24 02:54:40;;;;;;;54.23;31.60;;;9.50;99.90;;;;;;5054709;28;20213;-68
2022/03/24 02:57:07;;;;;;;57.60;33.80;;;9.40;99.90;;;;;;5054462;28;20200;-69
2022/03/24 02:59:33;;;;;;;46.47;31.87;;;9.40;99.90;;;;;;5053345;28;20213;-68
2022/03/24 03:02:07;;;;;;;54.03;32.70;;;9.40;99.90;;;;;;5054771;28;20173;-69
2022/03/24 03:04:34;;;;;;;49.50;32.20;;;9.40;99.90;;;;;;5054276;28;20180;-69
2022/03/24 03:07:02;;;;;;;50.90;31.87;;;9.40;99.90;;;;;;5054497;28;20218;-68
2022/03/24 03:09:29;;;;;;;50.70;31.07;;;9.40;99.90;;;;;;5054666;28;20177;-69
2022/03/24 03:11:56;;;;;;;51.60;31.50;;;9.40;99.90;;;;;;5054377;28;20303;-67
2022/03/24 03:14:22;;;;;;;56.87;32.47;;;9.40;99.90;;;;;;5054572;28;20184;-69
2022/03/24 03:16:48;;;;;;;52.17;32.33;;;9.40;99.50;;;;;;5054356;28;20170;-67
2022/03/24 03:19:17;;;;;;;55.17;32.33;;;9.30;99.70;;;;;;5053849;28;20698;-69
2022/03/24 03:21:42;;;;;;;53.47;31.40;;;9.30;99.80;;;;;;5054295;28;20184;-68
2022/03/24 03:24:10;;;;;;;55.07;31.93;;;9.30;99.30;;;;;;5054065;28;20174;-69
2022/03/24 03:26:37;;;;;;;49.37;31.73;;;9.30;99.10;;;;;;5053745;28;20265;-68
2022/03/24 03:29:03;;;;;;;50.43;30.87;;;9.30;99.10;;;;;;5054424;28;20181;-68
2022/03/24 03:31:28;;;;;;;50.80;31.90;;;9.30;98.90;;;;;;5053889;28;20175;-70
2022/03/24 03:33:55;;;;;;;55.97;32.77;;;9.30;98.90;;;;;;5053453;28;20248;-69
2022/03/24 03:36:22;;;;;;;51.37;32.47;;;9.30;98.80;;;;;;5053809;28;20200;-70
2022/03/24 03:38:48;;;;;;;52.80;30.77;;;9.30;98.90;;;;;;5053356;28;20203;-68
2022/03/24 03:41:15;;;;;;;57.33;32.17;;;9.20;98.90;;;;;;5053346;28;20223;-68
2022/03/24 03:43:42;;;;;;;52.03;32.67;;;9.20;99.00;;;;;;5053975;28;20170;-69
2022/03/24 03:46:08;;;;;;;58.00;32.53;;;9.00;99.40;;;;;;5053447;28;20255;-68
2022/03/24 03:48:38;;;;;;;47.40;30.37;;;9.00;99.70;;;;;;5053520;28;20181;-68
2022/03/24 03:51:06;;;;;;;53.23;31.77;;;9.00;99.70;;;;;;5052624;28;20621;-69
2022/03/24 03:53:33;;;;;;;52.87;32.00;;;8.90;99.60;;;;;;5053683;28;20583;-69
2022/03/24 03:55:59;;;;;;;49.03;31.53;;;8.90;99.90;;;;;;5053274;28;20228;-69
2022/03/24 03:58:25;;;;;;;57.03;32.03;;;8.90;99.90;;;;;;5053488;28;20205;-68
2022/03/24 04:00:55;;;;;;;53.07;31.90;;;8.90;99.90;;;;;;5052164;28;20600;-69
2022/03/24 04:03:20;;;;;;;53.60;32.03;;;8.90;99.90;;;;;;5053304;28;20177;-70
2022/03/24 04:05:46;;;;;;;53.67;30.93;;;8.90;99.90;;;;;;5053550;28;20181;-69
2022/03/24 04:08:13;;;;;;;50.13;31.30;;;8.90;99.90;;;;;;5053420;28;20247;-69
2022/03/24 04:10:39;;;;;;;53.33;31.63;;;8.80;99.90;;;;;;5053523;28;20173;-69
2022/03/24 04:13:07;;;;;;;52.90;31.83;;;8.70;99.90;;;;;;5053127;28;20674;-68
2022/03/24 04:15:34;;;;;;;48.97;30.20;;;8.50;99.90;;;;;;5052782;28;20609;-69
2022/03/24 04:18:03;;;;;;;52.60;31.37;;;8.60;99.90;;;;;;5052632;28;20181;-69
2022/03/24 04:20:30;;;;;;;52.80;31.97;;;8.70;99.90;;;;;;5053103;28;20193;-69
2022/03/24 04:23:00;;;;;;;56.53;31.23;;;8.70;99.90;;;;;;5052837;28;20173;-68
2022/03/24 04:25:26;;;;;;;53.80;32.10;;;8.70;99.90;;;;;;5053017;28;20169;-68
2022/03/24 04:27:52;;;;;;;54.73;32.13;;;8.60;99.90;;;;;;5051446;28;20177;-68
2022/03/24 04:30:18;;;;;;;54.97;32.37;;;8.60;99.90;;;;;;5052661;28;20530;-68
2022/03/24 04:32:50;;;;;;;56.67;33.13;;;8.60;99.90;;;;;;5052990;28;20193;-69
2022/03/24 04:35:16;;;;;;;49.57;30.93;;;8.60;99.90;;;;;;5051429;28;20173;-68
2022/03/24 04:37:43;;;;;;;52.57;32.07;;;8.50;99.90;;;;;;5052685;28;20177;-69
2022/03/24 04:40:13;;;;;;;55.30;33.47;;;8.50;99.90;;;;;;5052807;28;20259;-69
2022/03/24 04:42:39;;;;;;;57.70;31.60;;;8.30;99.90;;;;;;5051062;28;20245;-69
2022/03/24 04:45:09;;;;;;;56.63;32.47;;;8.20;99.90;;;;;;5052374;28;20197;-68
2022/03/24 04:47:35;;;;;;;52.20;31.67;;;8.10;99.90;;;;;;5052492;28;20176;-69
2022/03/24 04:50:02;;;;;;;52.57;31.97;;;8.10;99.90;;;;;;5054150;28;20175;-69
2022/03/24 04:52:27;;;;;;;50.73;31.70;;;8.00;99.90;;;;;;5056674;28;20176;-68
2022/03/24 04:54:54;;;;;;;54.20;32.93;;;7.90;1.00;;;;;;5056488;28;20224;-69
2022/03/24 04:57:19;;;;;;;55.70;33.20;;;7.80;99.90;;;;;;5054563;28;20243;-68
2022/03/24 04:59:45;;;;;;;55.73;33.10;;;7.70;1.00;;;;;;5056084;28;20216;-68
2022/03/24 05:02:15;;;;;;;63.90;34.40;;;7.60;1.00;;;;;;5056642;28;20164;-68
2022/03/24 05:04:42;;;;;;;58.33;35.57;;;7.50;99.90;;;;;;5056452;28;20176;-68
2022/03/24 05:07:09;;;;;;;61.93;34.43;;;7.40;1.00;;;;;;5056425;28;20180;-69
2022/03/24 05:09:35;;;;;;;53.70;33.23;;;7.30;1.00;;;;;;5055207;28;20227;-69
2022/03/24 05:12:00;;;;;;;60.90;34.43;;;7.30;1.00;;;;;;5055091;28;20184;-68
2022/03/24 05:14:26;;;;;;;61.07;34.93;;;7.30;63.80;;;;;;5055842;28;20181;-68
2022/03/24 05:16:52;;;;;;;53.57;34.37;;;7.20;99.90;;;;;;5056192;28;20165;-69
2022/03/24 05:19:19;;;;;;;61.47;35.57;;;7.10;1.00;;;;;;5056339;28;20224;-69
2022/03/24 05:21:45;;;;;;;58.00;33.73;;;7.10;1.00;;;;;;5056424;28;20168;-69
2022/03/24 05:24:11;;;;;;;56.40;34.70;;;7.20;1.00;;;;;;5056301;28;20177;-68
2022/03/24 05:26:38;;;;;;;61.23;35.43;;;7.10;1.00;;;;;;5055914;28;20196;-68
2022/03/24 05:29:03;;;;;;;66.90;35.90;;;7.20;1.00;;;;;;5056055;28;20259;-69
2022/03/24 05:31:29;;;;;;;63.63;35.77;;;7.40;1.00;;;;;;5055915;28;20257;-69
2022/03/24 05:33:55;;;;;;;69.03;35.50;;;7.50;99.90;;;;;;5056089;28;20181;-69
2022/03/24 05:36:20;;;;;;;59.80;35.63;;;7.50;99.90;;;;;;5055774;28;20574;-68
2022/03/24 05:38:46;;;;;;;66.57;36.23;;;7.40;99.90;;;;;;5055803;28;20247;-69
2022/03/24 05:41:12;;;;;;;72.00;35.57;;;7.40;99.90;;;;;;5055386;28;20173;-68
2022/03/24 05:43:38;;;;;;;61.63;35.00;;;7.30;99.90;;;;;;5055466;28;20173;-69
2022/03/24 05:46:04;;;;;;;67.77;35.30;;;7.40;99.90;;;;;;5055653;28;20173;-68
2022/03/24 05:48:29;;;;;;;74.20;34.77;;;7.40;99.90;;;;;;5055583;28;20173;-68
2022/03/24 05:50:55;;;;;;;68.17;36.27;;;7.40;99.90;;;;;;5055671;28;20176;-68
2022/03/24 05:53:21;;;;;;;65.63;36.60;;;7.40;99.90;;;;;;5055265;28;20205;-68
2022/03/24 05:55:46;;;;;;;67.23;37.23;;;7.50;99.90;;;;;;5055291;28;20224;-69
2022/03/24 05:58:12;;;;;;;58.77;35.20;;;7.60;1.00;;;;;;5054972;28;20189;-69
2022/03/24 06:00:40;;;;;;;67.63;36.30;;;7.80;99.90;;;;;;5054327;28;20192;-68
2022/03/24 06:03:06;;;;;;;72.90;36.13;;;8.00;6.30;;;;;;5055160;28;20256;-68
2022/03/24 06:05:32;;;;;;;74.57;37.70;;;8.30;99.90;;;;;;5053895;28;20181;-69
2022/03/24 06:08:01;;;;;;;69.73;36.03;;;8.70;1.00;;;;;;5055007;28;20256;-68
2022/03/24 06:10:27;;;;;;;69.37;37.30;;;9.20;1.00;;;;;;5054922;28;20315;-67
2022/03/24 06:12:53;;;;;;;72.80;35.80;;;9.70;1.00;;;;;;5053758;28;20214;-68
2022/03/24 06:15:19;;;;;;;66.07;36.43;;;10.10;99.90;;;;;;5053862;28;20177;-68
2022/03/24 06:17:45;;;;;;;64.70;36.27;;;10.70;99.90;;;;;;5054674;28;20176;-68
2022/03/24 06:20:13;;;;;;;70.87;35.73;;;11.30;99.90;;;;;;5054758;28;20224;-69
2022/03/24 06:22:50;;;;;;;65.53;36.17;;;11.50;98.80;;;;;;5054427;28;20176;-68
2022/03/24 06:25:16;;;;;;;84.83;37.33;;;11.80;98.00;;;;;;5052988;28;20177;-68
2022/03/24 06:27:42;;;;;;;78.53;36.93;;;11.90;97.60;;;;;;5053842;28;20739;-68
2022/03/24 06:30:08;;;;;;;66.73;36.67;;;12.00;97.20;;;;;;5053402;28;20663;-68
2022/03/24 06:32:34;;;;;;;75.77;36.77;;;12.10;96.70;;;;;;5052783;28;20174;-68
2022/03/24 06:35:03;;;;;;;65.63;37.03;;;12.20;96.60;;;;;;5053400;28;20533;-69
2022/03/24 06:37:30;;;;;;;77.30;36.90;;;12.40;96.60;;;;;;5053061;28;20264;-69
2022/03/24 06:39:56;;;;;;;62.30;35.87;;;12.50;95.80;;;;;;5053712;28;20304;-68
2022/03/24 06:42:23;;;;;;;71.20;37.27;;;12.70;95.00;;;;;;5052471;28;20607;-69
2022/03/24 06:44:49;;;;;;;70.17;36.37;;;13.10;95.00;;;;;;5053924;28;20264;-69
2022/03/24 06:47:15;;;;;;;69.57;37.10;;;13.80;93.10;;;;;;5053813;28;20503;-69
2022/03/24 06:49:41;;;;;;;64.43;37.10;;;14.90;91.70;;;;;;5052899;28;20231;-69
2022/03/24 06:52:07;;;;;;;77.70;38.80;;;16.00;87.90;;;;;;5053637;28;20207;-69
2022/03/24 06:54:32;;;;;;;74.97;37.30;;;16.90;81.10;;;;;;5053773;28;20304;-69
2022/03/24 06:56:58;;;;;;;81.03;37.47;;;17.80;77.50;;;;;;5052830;28;20185;-69
2022/03/24 06:59:24;;;;;;;98.37;39.13;;;18.50;72.10;;;;;;5053770;28;20209;-70
2022/03/24 07:01:49;;;;;;;78.73;38.50;;;19.40;68.90;;;;;;5053007;28;20173;-69
2022/03/24 07:04:16;;;;;;;78.93;38.53;;;20.50;64.70;;;;;;5054102;28;20628;-70
2022/03/24 07:06:42;;;;;;;84.65;40.08;;;21.60;60.90;;;;;;5053254;28;20176;-71
2022/03/24 07:09:07;;;;;;;69.22;39.70;;;22.70;57.40;;;;;;5053505;28;20181;-71
2022/03/24 07:11:33;;;;;;;81.78;39.38;;;23.00;54.10;;;;;;5052935;28;20169;-70
2022/03/24 07:13:59;;;;;;;76.70;39.53;;;23.40;52.20;;;;;;5050890;28;20311;-70
2022/03/24 07:16:24;;;;;;;75.70;39.88;;;23.20;51.30;;;;;;5053580;28;20185;-71
2022/03/24 07:18:51;;;;;;;79.45;42.13;;;23.70;50.40;;;;;;5053355;28;20259;-71
2022/03/24 07:21:17;;;;;;;68.30;40.60;;;24.00;49.20;;;;;;5053734;28;20166;-71
2022/03/24 07:23:43;;;;;;;78.10;41.22;;;24.80;47.60;;;;;;5052979;28;20260;-70
2022/03/24 07:26:09;;;;;;;70.60;45.08;;;25.60;45.40;;;;;;5052433;28;20161;-71
2022/03/24 07:28:35;;;;;;;70.65;45.50;;;25.90;41.50;;;;;;5051868;28;20683;-71
2022/03/24 07:31:09;;;;;;;74.72;50.17;;;26.50;39.00;;;;;;5052961;28;20647;-71
2022/03/24 07:33:35;;;;;;;69.43;49.72;;;26.60;37.10;;;;;;5053302;28;20162;-71
2022/03/24 07:36:01;;;;;;;71.20;51.45;;;27.20;36.40;;;;;;5052947;28;20181;-71
2022/03/24 07:38:27;;;;;;;76.82;53.33;;;27.50;34.20;;;;;;5051616;28;20215;-71
2022/03/24 07:40:53;;;;;;;77.13;53.35;;;27.90;32.80;;;;;;5052850;28;20181;-71
2022/03/24 07:43:18;;;;;;;74.95;54.10;;;28.10;31.60;;;;;;5052833;28;20252;-71
2022/03/24 07:45:44;;;;;;;79.55;53.45;;;27.90;30.00;;;;;;5053076;28;20252;-71
2022/03/24 07:48:17;;;;;;;88.20;53.05;;;28.10;30.00;;;;;;5052620;28;20169;-72
2022/03/24 07:50:46;;;;;;;86.07;54.15;;;29.00;30.00;;;;;;5050946;28;20196;-71
2022/03/24 07:53:11;;;;;;;78.60;53.25;;;28.70;29.00;;;;;;5051923;28;20173;-71
2022/03/24 07:55:38;;;;;;;91.03;56.33;;;28.60;28.60;;;;;;5052395;28;20730;-70
2022/03/24 07:58:04;;;;;;;83.18;55.25;;;29.00;28.30;;;;;;5052931;28;20200;-72
2022/03/24 08:00:30;;;;;;;87.40;55.78;;;29.20;27.90;;;;;;5052152;28;20177;-70
2022/03/24 08:02:57;;;;;;;81.38;56.00;;;28.60;28.40;;;;;;5052526;28;20224;-71
2022/03/24 08:05:23;;;;;;;85.70;55.47;;;29.00;28.10;;;;;;5051184;28;20494;-71
2022/03/24 08:07:48;;;;;;;85.97;55.83;;;28.70;27.80;;;;;;5051408;28;20173;-71
2022/03/24 08:10:14;;;;;;;87.32;56.40;;;28.80;27.70;;;;;;5052379;28;20164;-72
2022/03/24 08:12:40;;;;;;;82.88;55.13;;;29.30;27.50;;;;;;5050826;28;20173;-70
2022/03/24 08:15:06;;;;;;;83.65;56.22;;;29.20;27.10;;;;;;5052722;28;20256;-71
2022/03/24 08:17:31;;;;;;;78.95;55.58;;;29.20;27.30;;;;;;5052130;28;20173;-70
2022/03/24 08:19:57;;;;;;;81.65;55.45;;;29.50;26.80;;;;;;5052073;28;20311;-71
2022/03/24 08:22:23;;;;;;;68.95;53.83;;;29.80;26.70;;;;;;5051618;28;20209;-71
2022/03/24 08:24:49;;;;;;;81.65;54.35;;;30.30;26.10;;;;;;5051612;28;20204;-71
2022/03/24 08:27:15;;;;;;;80.65;56.15;;;30.00;26.10;;;;;;5052010;28;20166;-71
2022/03/24 08:29:40;;;;;;;79.78;55.25;;;29.60;26.60;;;;;;5051311;28;20227;-72
2022/03/24 08:32:07;;;;;;;83.20;56.25;;;29.40;26.60;;;;;;5051583;28;20195;-71
2022/03/24 08:34:32;;;;;;;78.93;55.28;;;29.90;26.50;;;;;;5051671;28;20537;-70
2022/03/24 08:36:58;;;;;;;72.57;55.30;;;29.70;26.10;;;;;;5051578;28;20173;-71
2022/03/24 08:39:24;;;;;;;72.60;54.92;;;29.70;26.10;;;;;;5050418;28;20208;-72
2022/03/24 08:41:49;;;;;;;75.05;54.60;;;29.40;25.90;;;;;;5052418;28;20612;-72
2022/03/24 08:44:15;;;;;;;83.07;54.17;;;29.90;25.40;;;;;;5051917;28;20169;-70
2022/03/24 08:46:40;;;;;;;74.60;53.08;;;29.30;25.50;;;;;;5051600;28;20208;-71
2022/03/24 08:49:06;;;;;;;76.53;53.28;;;29.80;25.20;;;;;;5058214;28;20639;-72
2022/03/24 08:51:32;;;;;;;77.53;54.80;;;29.80;25.20;;;;;;5052149;28;20184;-72
2022/03/24 08:53:57;;;;;;;72.82;52.90;;;29.90;25.20;;;;;;5057642;28;20688;-71
2022/03/24 08:56:23;;;;;;;66.97;53.40;;;29.90;25.30;;;;;;5052992;28;20510;-71
2022/03/24 08:58:49;;;;;;;70.00;52.10;;;30.60;24.80;;;;;;5052142;28;20544;-72
2022/03/24 09:01:15;;;;;;;69.57;52.78;;;30.30;25.30;;;;;;5051965;28;20180;-71
2022/03/24 09:03:41;;;;;;;69.70;54.60;;;30.40;25.00;;;;;;5058054;28;20275;-71
2022/03/24 09:06:06;;;;;;;71.55;53.47;;;30.50;24.80;;;;;;5063227;28;20692;-72
2022/03/24 09:08:32;;;;;;;68.60;54.70;;;30.50;25.00;;;;;;5052109;28;20224;-71
2022/03/24 09:10:58;;;;;;;71.53;51.92;;;30.30;25.10;;;;;;5052495;28;20204;-71
2022/03/24 09:13:26;;;;;;;68.75;53.30;;;30.70;24.60;;;;;;5051548;28;20640;-70
2022/03/24 09:15:52;;;;;;;69.78;55.03;;;31.30;24.60;;;;;;5052886;28;20287;-71
2022/03/24 09:18:18;;;;;;;74.65;52.47;;;31.40;24.50;;;;;;5051744;28;20638;-70
2022/03/24 09:20:43;;;;;;;68.53;52.42;;;31.60;24.10;;;;;;5052476;28;20176;-71
2022/03/24 09:23:09;;;;;;;61.22;51.42;;;32.00;23.80;;;;;;5067049;28;20222;-71
2022/03/24 09:25:38;;;;;;;68.07;52.95;;;32.00;23.60;;;;;;5071828;28;20216;-71
2022/03/24 09:28:06;;;;;;;71.03;53.15;;;31.20;24.00;;;;;;5071435;28;20226;-71
2022/03/24 09:30:32;;;;;;;63.10;52.13;;;31.10;23.90;;;;;;5069191;28;20184;-71
2022/03/24 09:32:57;;;;;;;67.15;51.63;;;31.40;24.10;;;;;;5069796;28;20183;-71
2022/03/24 09:35:24;;;;;;;65.28;50.05;;;31.30;24.00;;;;;;5063746;28;20541;-71
2022/03/24 09:37:49;;;;;;;58.72;48.63;;;31.90;23.40;;;;;;5056762;28;20538;-71
2022/03/24 09:40:15;;;;;;;47.22;40.75;;;31.90;22.70;;;;;;5055174;28;20215;-71
2022/03/24 09:42:42;;;;;;;59.97;47.65;;;30.40;22.20;;;;;;5055674;28;20177;-71
2022/03/24 09:45:10;;;;;;;49.60;40.22;;;30.60;23.40;;;;;;5054991;28;20660;-71
2022/03/24 09:47:37;;;;;;;55.42;39.50;;;30.10;22.60;;;;;;5055372;28;20173;-71
2022/03/24 09:50:04;;;;;;;42.67;36.75;;;30.60;22.60;;;;;;5054496;28;20178;-70
2022/03/24 09:52:29;;;;;;;44.80;34.20;;;31.00;22.00;;;;;;5055028;28;20235;-71
2022/03/24 09:54:55;;;;;;;38.45;31.67;;;31.50;21.40;;;;;;5058784;28;20600;-71
2022/03/24 09:57:21;;;;;;;40.53;32.35;;;31.10;21.10;;;;;;5069765;28;20188;-71
2022/03/24 09:59:47;;;;;;;41.03;33.45;;;30.90;21.10;;;;;;5056978;28;20379;-71
2022/03/24 10:02:13;;;;;;;41.88;33.45;;;31.10;21.60;;;;;;5057461;28;20177;-71
2022/03/24 10:04:51;;;;;;;38.80;32.95;;;30.80;21.40;;;;;;5061322;28;20184;-69
2022/03/24 10:07:25;;;;;;;40.38;32.47;;;30.20;21.60;;;;;;5059068;28;20275;-70
2022/03/24 10:09:56;;;;;;;41.30;33.50;;;28.90;22.30;;;;;;5056800;28;20204;-71
2022/03/24 10:12:24;;;;;;;40.90;32.75;;;26.50;24.00;;;;;;5068738;28;20195;-71
2022/03/24 10:15:03;;;;;;;42.45;33.47;;;25.10;25.30;;;;;;5072806;28;20188;-70
2022/03/24 10:17:30;;;;;;;43.75;31.98;;;24.10;26.20;;;;;;5088749;28;20172;-69
2022/03/24 10:20:01;;;;;;;47.90;33.67;;;23.90;26.60;;;;;;5066708;28;20686;-71
2022/03/24 10:22:27;;;;;;;43.08;34.45;;;24.00;27.00;;;;;;5072952;28;20184;-70
2022/03/24 10:24:53;;;;;;;44.53;32.83;;;24.00;27.20;;;;;;5058446;28;20181;-71
2022/03/24 10:27:28;;;;;;;42.38;31.35;;;24.90;26.30;;;;;;5054989;28;20173;-70
2022/03/24 10:29:58;;;;;;;47.15;32.83;;;24.60;26.20;;;;;;5059079;28;20208;-70
2022/03/24 10:32:29;;;;;;;44.90;34.20;;;25.70;25.70;;;;;;5059746;28;20260;-71
2022/03/24 10:35:13;;;;;;;42.10;33.10;;;25.20;25.70;;;;;;5054124;28;20162;-71
2022/03/24 10:37:51;;;;;;;52.67;35.03;;;24.80;26.00;;;;;;5056065;28;20178;-71
2022/03/24 10:40:18;;;;;;;45.13;35.55;;;24.30;26.70;;;;;;5072025;28;20327;-71
2022/03/24 10:42:44;;;;;;;43.38;34.50;;;24.50;26.90;;;;;;5074263;28;20624;-71
2022/03/24 10:45:17;;;;;;;45.25;33.40;;;25.30;26.60;;;;;;5074358;28;20199;-69
2022/03/24 10:48:00;;;;;;;48.70;34.88;;;25.60;25.60;;;;;;5072012;28;20171;-71
2022/03/24 10:50:38;;;;;;;45.75;35.65;;;26.10;25.30;;;;;;5074193;28;20646;-71
2022/03/24 10:53:07;;;;;;;45.92;35.13;;;25.10;25.70;;;;;;5074324;28;20210;-71
2022/03/24 10:55:44;;;;;;;48.45;36.92;;;24.40;26.30;;;;;;5073812;28;20216;-71
2022/03/24 10:58:25;;;;;;;48.90;37.85;;;23.90;27.10;;;;;;5074211;28;20176;-69
2022/03/24 11:00:54;;;;;;;41.70;31.27;;;24.00;27.40;;;;;;5073894;28;20247;-69
2022/03/24 11:03:22;;;;;;;44.03;33.38;;;23.60;25.00;;;;;;5073554;28;20169;-70
2022/03/24 11:05:47;;;;;;;45.50;33.33;;;23.40;26.20;;;;;;5071456;28;20177;-70
2022/03/24 11:08:17;;;;;;;46.15;34.63;;;23.20;26.00;;;;;;5071913;28;20218;-70
2022/03/24 11:10:46;;;;;;;39.75;29.42;;;23.50;26.40;;;;;;5057146;28;20280;-68
2022/03/24 11:13:17;;;;;;;40.08;29.85;;;24.10;25.10;;;;;;5062060;28;20180;-70
2022/03/24 11:15:43;;;;;;;40.88;34.63;;;24.90;24.70;;;;;;5060543;28;20181;-69
2022/03/24 11:18:10;;;;;;;38.10;30.33;;;23.60;25.30;;;;;;5056258;28;20173;-69
2022/03/24 11:20:38;;;;;;;34.63;26.63;;;23.40;26.20;;;;;;5056012;28;20242;-69
2022/03/24 11:23:17;;;;;;;32.47;26.92;;;24.50;24.30;;;;;;5065242;28;20177;-70
2022/03/24 11:25:44;;;;;;;38.08;31.27;;;26.10;23.50;;;;;;5053505;28;20166;-69
2022/03/24 11:28:13;;;;;;;34.83;26.95;;;26.40;23.40;;;;;;5053785;28;20269;-69
2022/03/24 11:30:39;;;;;;;29.23;23.90;;;26.60;22.80;;;;;;5053852;28;20173;-69
2022/03/24 11:33:04;;;;;;;33.78;24.92;;;26.10;21.70;;;;;;5052667;28;20169;-69
2022/03/24 11:35:33;;;;;;;29.50;24.52;;;24.50;23.00;;;;;;5054485;28;20537;-70
2022/03/24 11:38:01;;;;;;;30.70;24.05;;;23.70;23.40;;;;;;5053073;28;20181;-70
2022/03/24 11:40:30;;;;;;;32.83;24.45;;;24.50;23.40;;;;;;5056067;28;20204;-69
2022/03/24 11:43:00;;;;;;;31.65;26.15;;;24.30;22.50;;;;;;5071396;28;20165;-69
2022/03/24 11:45:50;;;;;;;44.33;33.17;;;24.20;22.90;;;;;;5059893;28;20314;-69
2022/03/24 11:48:17;;;;;;;42.35;31.35;;;23.50;25.00;;;;;;5052474;28;20165;-69
2022/03/24 11:50:52;;;;;;;33.10;25.92;;;23.10;25.40;;;;;;5052609;28;20177;-69
2022/03/24 11:53:29;;;;;;;38.53;30.58;;;23.20;23.90;;;;;;5053294;28;20647;-69
2022/03/24 11:56:03;;;;;;;43.17;33.40;;;23.70;25.80;;;;;;5052239;28;20216;-68
2022/03/24 11:58:29;;;;;;;45.92;35.30;;;23.10;25.50;;;;;;5051693;28;20246;-69
2022/03/24 12:00:55;;;;;;;43.67;33.58;;;21.80;26.80;;;;;;5053116;28;20174;-69
2022/03/24 12:03:40;;;;;;;48.80;33.60;;;21.60;27.30;;;;;;5052609;28;20162;-71
2022/03/24 12:06:06;;;;;;;45.42;34.25;;;22.10;27.40;;;;;;5058868;28;20552;-70
2022/03/24 12:08:45;;;;;;;45.15;34.00;;;22.20;27.20;;;;;;5059206;28;20301;-70
2022/03/24 12:11:37;;;;;;;47.50;32.17;;;22.50;26.90;;;;;;5070005;28;20226;-70
2022/03/24 12:14:23;;;;;;;43.88;32.97;;;22.10;26.70;;;;;;5078704;28;20168;-70
2022/03/24 12:16:51;;;;;;;44.00;32.00;;;22.00;26.80;;;;;;5074487;28;20181;-70
2022/03/24 12:19:35;;;;;;;53.28;32.95;;;22.30;26.20;;;;;;5079270;28;20638;-69
2022/03/24 12:22:01;;;;;;;46.55;33.40;;;22.40;26.60;;;;;;5056696;28;20173;-69
2022/03/24 12:24:37;;;;;;;42.13;31.45;;;22.80;26.80;;;;;;5056142;28;20201;-69
2022/03/24 12:27:06;;;;;;;41.72;31.58;;;22.90;26.40;;;;;;5078303;28;20211;-69
2022/03/24 12:29:32;;;;;;;44.65;31.38;;;23.20;26.00;;;;;;5085529;28;20184;-69
2022/03/24 12:32:05;;;;;;;39.25;31.13;;;22.90;25.70;;;;;;5080091;28;20675;-69